Terminal Aerodrome Forecast
Issued by NWS

Home | Current Version | Previous Version | Text Only | Print | Product List | Glossary On
Versions: 1 2 3 4 5 6 7 8 9 10 11 12 13 14 15 16 17 18 19 20 21 22 23 24 25 26 27 28 29 30
140
FTUS42 KGSP 040533
TAFHKY
TAF
KHKY 040533Z 0406/0506 08004KT P6SM VCSH OVC090
     FM040900 07003KT 5SM BR VCSH OVC060
     FM041100 07003KT 4SM -RA BR OVC030
      TEMPO 0411/0413 2SM -RA BR OVC008
     FM041300 08003KT 4SM BR OVC008
     FM041500 08004KT 2SM -RA BR OVC008
     FM050400 00000KT 1 1/2SM -RA BR OVC003=

USA.gov is the U.S. government's official web portal to all federal, state and local government web resources and services.